createdAt,value
2019-03-22T00:01:17.542Z,61.53
2019-03-22T00:03:47.271Z,61.93
2019-03-22T00:06:17.070Z,62.00
2019-03-22T00:08:46.964Z,65.40
2019-03-22T00:11:16.084Z,62.90
2019-03-22T00:13:45.699Z,60.67
2019-03-22T00:16:15.181Z,64.00
2019-03-22T00:18:44.502Z,64.10
2019-03-22T00:21:14.944Z,61.93
2019-03-22T00:23:44.571Z,61.73
2019-03-22T00:26:14.738Z,64.83
2019-03-22T00:28:45.110Z,62.20
2019-03-22T00:31:14.903Z,63.20
2019-03-22T00:33:44.596Z,61.13
2019-03-22T00:36:14.007Z,65.93
2019-03-22T00:38:43.994Z,62.13
2019-03-22T00:41:13.293Z,60.70
2019-03-22T00:43:44.000Z,61.07
2019-03-22T00:46:13.628Z,62.27
2019-03-22T00:48:43.686Z,61.40
2019-03-22T00:51:14.175Z,60.07
2019-03-22T00:53:44.324Z,65.40
2019-03-22T00:56:14.373Z,68.17
2019-03-22T00:58:44.717Z,62.13
2019-03-22T01:01:15.471Z,68.70
2019-03-22T01:03:45.519Z,64.77
2019-03-22T01:06:15.605Z,68.00
2019-03-22T01:08:45.585Z,72.10
2019-03-22T01:11:16.082Z,71.43
2019-03-22T01:13:45.937Z,76.57
2019-03-22T01:16:15.961Z,79.17
2019-03-22T01:18:46.440Z,79.07
2019-03-22T01:21:16.167Z,81.57
2019-03-22T01:23:47.057Z,83.67
2019-03-22T01:26:19.100Z,84.77
2019-03-22T01:28:49.578Z,83.80
2019-03-22T01:31:20.263Z,82.47
2019-03-22T01:33:50.110Z,85.17
2019-03-22T01:36:19.928Z,80.47
2019-03-22T01:38:50.135Z,77.23
2019-03-22T01:41:19.739Z,74.07
2019-03-22T01:43:51.293Z,74.80
2019-03-22T01:46:23.317Z,73.40
2019-03-22T01:48:53.862Z,71.33
2019-03-22T01:51:24.270Z,69.00
2019-03-22T01:53:55.231Z,69.00
2019-03-22T01:56:25.316Z,71.00
2019-03-22T01:58:55.344Z,66.63
2019-03-22T02:01:24.811Z,65.30
2019-03-22T02:03:54.659Z,65.90
2019-03-22T02:06:24.582Z,67.27
2019-03-22T02:08:54.510Z,64.30
2019-03-22T02:11:24.933Z,61.27
2019-03-22T02:13:54.835Z,60.10
2019-03-22T02:16:24.290Z,60.83
2019-03-22T02:18:54.082Z,66.37
2019-03-22T02:21:23.686Z,60.33
2019-03-22T02:23:54.098Z,72.43
2019-03-22T02:26:23.963Z,66.53
2019-03-22T02:28:54.337Z,64.33
2019-03-22T02:31:24.797Z,69.33
2019-03-22T02:33:55.574Z,72.13
2019-03-22T02:36:25.637Z,70.00
2019-03-22T02:38:55.734Z,67.30
2019-03-22T02:41:25.756Z,63.23
2019-03-22T02:43:55.547Z,60.90
2019-03-22T02:46:25.694Z,58.70
2019-03-22T02:48:55.947Z,64.10
2019-03-22T02:51:26.293Z,60.27
2019-03-22T02:53:56.424Z,56.03
2019-03-22T02:56:25.957Z,54.83
2019-03-22T02:58:59.074Z,52.17
2019-03-22T03:01:25.737Z,54.97
2019-03-22T03:03:55.149Z,55.83
2019-03-22T03:06:24.439Z,50.50
2019-03-22T03:08:54.437Z,51.27
2019-03-22T03:11:24.067Z,43.13
2019-03-22T03:13:53.889Z,46.57
2019-03-22T03:16:23.078Z,44.60
2019-03-22T03:18:53.343Z,42.53
2019-03-22T03:21:26.504Z,42.40
2019-03-22T03:23:56.454Z,41.30
2019-03-22T03:26:25.865Z,42.43
2019-03-22T03:28:55.076Z,42.87
2019-03-22T03:31:24.820Z,44.50
2019-03-22T03:33:54.849Z,42.30
2019-03-22T03:36:24.627Z,44.37
2019-03-22T03:38:54.486Z,43.57
2019-03-22T03:41:24.211Z,42.10
2019-03-22T03:43:54.822Z,40.57
2019-03-22T03:46:24.542Z,43.40
2019-03-22T04:06:10.323Z,38.53
2019-03-22T04:08:50.938Z,37.07
2019-03-22T04:11:32.017Z,37.30
2019-03-22T04:14:13.101Z,38.77
2019-03-22T04:16:53.623Z,35.83
2019-03-22T04:19:34.717Z,37.83
2019-03-22T04:22:15.314Z,36.80
2019-03-22T04:24:55.665Z,36.77
2019-03-22T04:27:35.935Z,38.30
2019-03-22T04:30:16.578Z,37.07
2019-03-22T04:32:56.733Z,35.73
2019-03-22T04:35:37.493Z,38.40
2019-03-22T04:38:18.279Z,37.97
2019-03-22T04:40:59.425Z,39.67
2019-03-22T04:43:40.426Z,37.07
2019-03-22T04:46:20.422Z,38.00
2019-03-22T04:49:00.778Z,38.50
2019-03-22T04:51:42.056Z,39.00
2019-03-22T04:54:23.345Z,37.90
2019-03-22T04:57:03.907Z,35.97
2019-03-22T04:59:44.843Z,39.00
2019-03-22T05:02:25.325Z,38.27
2019-03-22T05:05:06.422Z,37.47
2019-03-22T05:07:47.392Z,36.10
2019-03-22T05:10:27.573Z,36.00
2019-03-22T05:13:08.111Z,35.87
2019-03-22T05:15:48.979Z,36.13
2019-03-22T05:18:29.270Z,36.93
2019-03-22T05:21:10.338Z,35.83
2019-03-22T05:23:50.980Z,36.73
2019-03-22T05:26:32.049Z,37.80
2019-03-22T05:29:13.278Z,37.10
2019-03-22T05:31:54.660Z,38.17
2019-03-22T05:34:35.250Z,37.23
2019-03-22T05:37:16.164Z,36.97
2019-03-22T05:39:57.092Z,37.27
2019-03-22T05:42:38.036Z,37.43
2019-03-22T05:45:18.801Z,38.23
2019-03-22T05:47:59.790Z,39.30
2019-03-22T05:50:41.024Z,37.27
2019-03-22T05:53:21.944Z,38.90
2019-03-22T05:56:02.573Z,38.27
2019-03-22T05:58:43.139Z,38.40
2019-03-22T06:01:24.760Z,37.20
2019-03-22T06:04:05.602Z,39.15
2019-03-22T06:06:47.035Z,38.20
2019-03-22T06:09:27.706Z,38.35
2019-03-22T06:12:08.562Z,38.37
2019-03-22T06:14:48.944Z,39.13
2019-03-22T06:17:29.506Z,39.97
2019-03-22T06:20:09.528Z,39.20
2019-03-22T06:22:50.940Z,42.57
2019-03-22T06:25:31.536Z,41.30
2019-03-22T06:28:12.758Z,43.33
2019-03-22T06:30:53.227Z,40.70
2019-03-22T06:33:34.361Z,40.53
2019-03-22T06:36:15.293Z,39.67
2019-03-22T06:38:56.004Z,40.97
2019-03-22T06:41:36.820Z,39.90
2019-03-22T06:44:17.426Z,42.20
2019-03-22T06:47:02.726Z,42.10
2019-03-22T06:49:48.453Z,39.27
2019-03-22T06:52:30.656Z,38.28
2019-03-22T06:55:17.215Z,40.17
2019-03-22T06:57:58.740Z,43.43
2019-03-22T07:00:39.675Z,41.85
2019-03-22T07:03:20.920Z,41.13
2019-03-22T07:06:01.846Z,40.45
2019-03-22T07:08:43.246Z,39.57
2019-03-22T07:11:24.197Z,38.13
2019-03-22T07:14:06.423Z,39.67
2019-03-22T07:16:47.310Z,39.45
2019-03-22T07:19:28.051Z,39.45
2019-03-22T07:22:10.166Z,39.10
2019-03-22T07:24:52.100Z,39.48
2019-03-22T07:27:33.719Z,39.30
2019-03-22T07:30:18.854Z,40.15
2019-03-22T08:10:29.721Z,42.17
2019-03-22T08:13:10.680Z,39.00
2019-03-22T08:15:52.863Z,40.77
2019-03-22T08:18:39.313Z,41.93
2019-03-22T08:21:24.244Z,40.50
2019-03-22T08:24:07.028Z,41.37
2019-03-22T08:26:49.013Z,39.08
2019-03-22T08:32:19.824Z,40.73
2019-03-22T08:35:00.981Z,40.65
2019-03-22T08:37:52.049Z,40.43
2019-03-22T08:40:25.864Z,40.55
2019-03-22T08:43:06.811Z,40.15
2019-03-22T08:45:48.229Z,41.53
2019-03-22T08:48:29.124Z,39.40
2019-03-22T08:51:09.848Z,39.40
2019-03-22T08:53:55.424Z,38.87
2019-03-22T08:56:35.734Z,39.97
2019-03-22T08:59:13.926Z,40.20
2019-03-22T09:01:55.855Z,39.93
2019-03-22T09:04:37.756Z,41.37
2019-03-22T09:07:24.124Z,39.40
2019-03-22T09:10:04.481Z,40.38
2019-03-22T09:12:46.483Z,41.87
2019-03-22T09:15:40.740Z,39.83
2019-03-22T09:18:09.764Z,40.57
2019-03-22T09:20:51.658Z,41.20
2019-03-22T09:23:33.116Z,41.93
2019-03-22T09:26:13.475Z,42.55
2019-03-22T09:28:53.797Z,43.47
2019-03-22T09:31:37.668Z,43.58
2019-03-22T09:34:19.407Z,43.03
2019-03-22T09:37:04.025Z,42.27
2019-03-22T09:39:48.462Z,43.53
2019-03-22T09:42:29.495Z,45.10
2019-03-22T09:45:10.154Z,44.13
2019-03-22T09:47:52.049Z,42.43
2019-03-22T09:50:32.971Z,43.68
2019-03-22T09:53:13.577Z,43.02
2019-03-22T09:55:54.786Z,42.00
2019-03-22T09:58:36.170Z,41.90
2019-03-22T10:01:23.636Z,41.53
2019-03-22T10:03:59.706Z,40.88
2019-03-22T10:06:42.452Z,41.33
2019-03-22T10:09:24.134Z,41.63
2019-03-22T10:12:06.140Z,41.03
2019-03-22T10:14:47.505Z,41.43
2019-03-22T10:17:28.450Z,40.50
2019-03-22T10:20:11.107Z,39.93
2019-03-22T10:22:53.026Z,39.70
2019-03-22T10:25:35.284Z,41.00
2019-03-22T10:28:20.863Z,39.13
2019-03-22T10:31:03.127Z,40.87
2019-03-22T10:33:46.943Z,39.63
2019-03-22T10:36:28.802Z,40.00
2019-03-22T10:39:11.421Z,39.83
2019-03-22T10:41:55.610Z,39.07
2019-03-22T10:44:35.831Z,38.23
2019-03-22T10:47:18.035Z,38.27
2019-03-22T10:49:58.723Z,38.40
2019-03-22T10:52:39.030Z,37.03
2019-03-22T10:55:29.666Z,38.10
2019-03-22T10:58:00.598Z,38.23
2019-03-22T11:00:41.293Z,35.00
2019-03-22T12:46:33.194Z,20.30
2019-03-22T12:49:13.938Z,20.40
2019-03-22T12:51:55.856Z,20.40
2019-03-22T12:54:37.350Z,21.03
2019-03-22T12:57:19.526Z,21.33
2019-03-22T13:00:00.674Z,21.67
2019-03-22T13:02:42.430Z,25.40
2019-03-22T13:05:23.342Z,25.20
2019-03-22T13:08:04.533Z,27.10
2019-03-22T13:10:45.762Z,27.77
2019-03-22T13:13:26.648Z,34.53
2019-03-22T13:16:07.940Z,33.00
2019-03-22T13:18:50.459Z,34.33
2019-03-22T13:21:30.987Z,33.63
2019-03-22T13:24:12.229Z,32.00
2019-03-22T13:26:53.146Z,34.33
2019-03-22T13:29:34.022Z,32.30
2019-03-22T13:32:15.065Z,37.33
2019-03-22T13:34:55.707Z,54.87
2019-03-22T13:37:36.969Z,43.53
2019-03-22T13:40:18.612Z,38.33
2019-03-22T13:42:59.605Z,38.90
2019-03-22T13:45:40.802Z,40.60
2019-03-22T13:48:23.253Z,41.67
2019-03-22T13:51:04.777Z,41.73
2019-03-22T13:53:45.861Z,45.50
2019-03-22T13:56:26.473Z,45.53
2019-03-22T13:59:07.176Z,50.40
2019-03-22T14:01:48.117Z,53.67
2019-03-22T14:04:29.258Z,54.50
2019-03-22T14:10:27.267Z,54.07
2019-03-22T14:13:13.002Z,52.03
2019-03-22T14:15:57.107Z,52.13
2019-03-22T14:21:22.733Z,56.63
2019-03-22T14:24:05.394Z,54.63
2019-03-22T14:26:46.564Z,56.43
2019-03-22T14:29:28.240Z,56.53
2019-03-22T14:32:10.148Z,54.40
2019-03-22T14:34:50.761Z,55.03
2019-03-22T14:37:31.504Z,59.67
2019-03-22T14:40:28.888Z,57.93
2019-03-22T14:43:09.488Z,59.80
2019-03-22T14:45:51.070Z,61.77
2019-03-22T14:48:33.242Z,63.07
2019-03-22T14:57:49.900Z,62.03
2019-03-22T15:00:26.205Z,66.73
2019-03-22T15:03:07.256Z,68.17
2019-03-22T15:05:47.833Z,70.57
2019-03-22T15:08:29.520Z,68.07
2019-03-22T15:11:09.725Z,72.37
2019-03-22T15:13:50.137Z,66.30
2019-03-22T15:16:30.862Z,76.03
2019-03-22T15:19:11.995Z,74.00
2019-03-22T15:21:52.996Z,71.17
2019-03-22T15:24:35.543Z,72.37
2019-03-22T15:27:15.912Z,64.07
2019-03-22T15:29:56.731Z,68.83
2019-03-22T15:32:37.323Z,60.23
2019-03-22T15:35:20.166Z,60.83
2019-03-22T15:38:03.898Z,60.50
2019-03-22T15:40:49.358Z,56.33
2019-03-22T15:43:35.728Z,57.93
2019-03-22T15:46:17.884Z,55.10
2019-03-22T15:48:59.057Z,55.10
2019-03-22T15:51:44.589Z,52.43
2019-03-22T15:54:30.839Z,56.30
2019-03-22T15:57:21.110Z,59.33
2019-03-22T16:00:02.883Z,62.00
2019-03-22T16:02:46.405Z,63.27
2019-03-22T16:05:29.069Z,58.93
2019-03-22T16:08:12.504Z,67.47
2019-03-22T16:13:47.588Z,64.17
2019-03-22T16:16:34.663Z,63.67
2019-03-22T16:19:17.528Z,61.70
2019-03-22T16:22:00.775Z,62.47
2019-03-22T16:24:40.743Z,67.80
